createdAt,value
2019-01-28T00:00:40.135Z,48.70
2019-01-28T00:03:08.269Z,48.80
2019-01-28T00:05:35.732Z,48.80
2019-01-28T00:08:03.197Z,48.50
2019-01-28T00:10:30.665Z,48.40
2019-01-28T00:12:58.124Z,48.20
2019-01-28T00:15:25.593Z,48.20
2019-01-28T00:17:53.066Z,48.20
2019-01-28T00:20:20.525Z,48.30
2019-01-28T00:22:47.998Z,48.30
2019-01-28T00:25:15.457Z,48.30
2019-01-28T00:27:42.926Z,48.30
2019-01-28T00:30:10.756Z,48.60
2019-01-28T00:32:38.237Z,48.80
2019-01-28T00:35:06.966Z,48.80
2019-01-28T00:37:34.680Z,48.80
2019-01-28T00:40:02.151Z,48.80
2019-01-28T00:42:29.621Z,48.80
2019-01-28T00:44:57.082Z,48.70
2019-01-28T00:47:24.638Z,48.70
2019-01-28T00:49:52.134Z,48.50
2019-01-28T00:52:19.645Z,48.50
2019-01-28T00:54:47.114Z,48.40
2019-01-28T00:57:14.585Z,48.40
2019-01-28T00:59:42.044Z,48.30
2019-01-28T01:02:09.521Z,48.20
2019-01-28T01:04:36.986Z,48.20
2019-01-28T01:07:04.489Z,48.30
2019-01-28T01:09:31.954Z,48.50
2019-01-28T01:11:59.414Z,48.60
2019-01-28T01:14:26.877Z,48.50
2019-01-28T01:16:54.341Z,48.30
2019-01-28T01:19:21.814Z,48.20
2019-01-28T01:21:49.274Z,48.20
2019-01-28T01:24:16.749Z,48.20
2019-01-28T01:26:44.210Z,48.20
2019-01-28T01:29:12.017Z,48.20
2019-01-28T01:31:39.478Z,48.20
2019-01-28T01:34:06.940Z,48.20
2019-01-28T01:36:34.411Z,48.20
2019-01-28T01:39:01.875Z,48.30
2019-01-28T01:41:29.598Z,48.40
2019-01-28T01:43:57.075Z,48.30
2019-01-28T01:46:24.533Z,48.20
2019-01-28T01:48:52.109Z,48.20
2019-01-28T01:51:19.573Z,48.20
2019-01-28T01:53:47.037Z,48.10
2019-01-28T01:56:14.510Z,48.00
2019-01-28T01:58:41.975Z,47.90
2019-01-28T02:01:09.777Z,48.40
2019-01-28T02:03:37.246Z,47.80
2019-01-28T02:06:04.714Z,47.80
2019-01-28T02:08:32.173Z,47.80
2019-01-28T02:10:59.913Z,47.90
2019-01-28T02:13:27.377Z,48.10
2019-01-28T02:15:54.850Z,48.10
2019-01-28T02:18:22.323Z,47.90
2019-01-28T02:20:49.791Z,47.80
2019-01-28T02:23:17.614Z,47.70
2019-01-28T02:25:45.078Z,47.70
2019-01-28T02:28:12.613Z,47.70
2019-01-28T02:30:40.083Z,47.60
2019-01-28T02:33:07.546Z,47.60
2019-01-28T02:35:35.017Z,47.70
2019-01-28T02:38:02.481Z,47.60
2019-01-28T02:40:29.958Z,47.90
2019-01-28T02:42:57.423Z,48.10
2019-01-28T02:45:24.894Z,48.10
2019-01-28T02:47:52.384Z,48.00
2019-01-28T02:50:19.835Z,48.00
2019-01-28T02:52:47.355Z,48.00
2019-01-28T02:55:14.817Z,48.10
2019-01-28T02:57:42.307Z,48.00
2019-01-28T03:00:11.453Z,48.00
2019-01-28T03:02:38.908Z,47.90
2019-01-28T03:05:07.141Z,47.90
2019-01-28T03:07:34.923Z,47.80
2019-01-28T03:10:02.386Z,47.80
2019-01-28T03:12:29.855Z,47.90
2019-01-28T03:14:57.320Z,47.70
2019-01-28T03:17:24.786Z,47.70
2019-01-28T03:19:52.245Z,48.00
2019-01-28T03:22:19.742Z,48.00
2019-01-28T03:24:47.209Z,47.90
2019-01-28T03:27:14.674Z,47.80
2019-01-28T03:29:42.140Z,47.80
2019-01-28T03:32:09.684Z,47.80
2019-01-28T03:34:37.264Z,47.70
2019-01-28T03:37:04.731Z,47.60
2019-01-28T03:39:32.194Z,47.60
2019-01-28T03:41:59.662Z,47.50
2019-01-28T03:44:27.134Z,47.60
2019-01-28T03:46:54.599Z,47.70
2019-01-28T03:49:22.066Z,47.90
2019-01-28T03:51:49.803Z,48.00
2019-01-28T03:54:17.550Z,48.00
2019-01-28T03:56:45.017Z,47.70
2019-01-28T03:59:12.498Z,47.70
2019-01-28T04:01:39.962Z,47.60
2019-01-28T04:04:07.443Z,47.70
2019-01-28T04:06:34.959Z,47.60
2019-01-28T04:09:02.428Z,47.60
2019-01-28T04:11:29.885Z,47.60
2019-01-28T04:13:57.362Z,47.60
2019-01-28T04:16:24.839Z,47.60
2019-01-28T04:18:52.628Z,47.70
2019-01-28T04:21:20.098Z,47.70
2019-01-28T04:23:47.584Z,47.70
2019-01-28T04:26:15.045Z,47.60
2019-01-28T04:28:42.521Z,47.60
2019-01-28T04:31:09.989Z,47.60
2019-01-28T04:33:37.467Z,47.50
2019-01-28T04:36:04.953Z,47.50
2019-01-28T04:38:32.437Z,47.60
2019-01-28T04:40:59.897Z,47.50
2019-01-28T04:43:27.363Z,47.40
2019-01-28T04:45:54.829Z,47.40
2019-01-28T04:48:22.289Z,47.60
2019-01-28T04:50:49.765Z,47.80
2019-01-28T04:53:17.227Z,47.90
2019-01-28T04:55:44.689Z,47.70
2019-01-28T04:58:12.185Z,47.80
2019-01-28T05:00:39.734Z,47.80
2019-01-28T05:03:07.197Z,47.90
2019-01-28T05:05:34.662Z,47.80
2019-01-28T05:08:02.226Z,47.90
2019-01-28T05:10:29.695Z,47.90
2019-01-28T05:12:57.165Z,47.80
2019-01-28T05:15:24.638Z,47.70
2019-01-28T05:17:52.101Z,47.60
2019-01-28T05:20:20.555Z,47.70
2019-01-28T05:22:48.023Z,47.70
2019-01-28T05:25:16.166Z,47.70
2019-01-28T05:27:43.632Z,47.70
2019-01-28T05:30:12.736Z,47.70
2019-01-28T05:32:40.187Z,47.70
2019-01-28T05:35:09.134Z,47.60
2019-01-28T05:37:36.605Z,47.50
2019-01-28T05:40:05.713Z,47.50
2019-01-28T05:42:33.178Z,47.70
2019-01-28T05:45:00.647Z,47.50
2019-01-28T05:47:28.112Z,47.40
2019-01-28T05:49:55.685Z,47.40
2019-01-28T05:52:23.157Z,48.00
2019-01-28T05:54:50.678Z,47.40
2019-01-28T05:57:18.151Z,47.60
2019-01-28T05:59:45.612Z,47.70
2019-01-28T06:02:13.155Z,47.70
2019-01-28T06:04:40.674Z,47.60
2019-01-28T06:07:12.939Z,47.60
2019-01-28T06:09:40.409Z,47.90
2019-01-28T06:12:07.877Z,47.50
2019-01-28T06:14:35.346Z,47.70
2019-01-28T06:17:02.830Z,47.70
2019-01-28T06:19:30.299Z,47.50
2019-01-28T06:21:57.765Z,47.60
2019-01-28T06:24:25.238Z,47.60
2019-01-28T06:26:52.706Z,47.60
2019-01-28T06:29:20.187Z,47.70
2019-01-28T06:31:47.652Z,48.20
2019-01-28T06:34:15.120Z,47.70
2019-01-28T06:36:42.985Z,47.60
2019-01-28T06:39:10.524Z,47.50
2019-01-28T06:41:37.990Z,47.60
2019-01-28T06:44:05.452Z,47.40
2019-01-28T06:46:32.931Z,47.30
2019-01-28T06:49:00.398Z,47.30
2019-01-28T06:51:27.861Z,47.30
2019-01-28T06:53:55.335Z,47.30
2019-01-28T06:56:22.786Z,47.30
2019-01-28T06:58:50.261Z,47.70
2019-01-28T07:01:17.718Z,47.70
2019-01-28T07:03:45.187Z,47.80
2019-01-28T07:06:12.644Z,47.90
2019-01-28T07:08:40.114Z,48.40
2019-01-28T07:11:07.620Z,47.80
2019-01-28T07:13:35.081Z,48.10
2019-01-28T07:16:02.549Z,47.90
2019-01-28T07:18:30.024Z,47.70
2019-01-28T07:20:57.491Z,47.60
2019-01-28T07:23:24.985Z,47.60
2019-01-28T07:25:52.461Z,47.40
2019-01-28T07:28:19.932Z,47.30
2019-01-28T07:30:47.400Z,48.00
2019-01-28T07:33:15.046Z,47.30
2019-01-28T07:35:42.522Z,47.60
2019-01-28T07:38:09.986Z,47.70
2019-01-28T07:40:37.469Z,47.80
2019-01-28T07:43:04.936Z,47.70
2019-01-28T07:45:33.370Z,47.70
2019-01-28T07:48:02.975Z,47.70
2019-01-28T07:50:30.110Z,47.50
2019-01-28T07:52:57.645Z,47.40
2019-01-28T07:55:25.174Z,47.40
2019-01-28T07:57:52.666Z,47.30
2019-01-28T08:00:21.799Z,47.40
2019-01-28T08:02:49.262Z,47.40
2019-01-28T08:05:17.321Z,47.40
2019-01-28T08:07:44.781Z,47.70
2019-01-28T08:10:15.932Z,47.70
2019-01-28T08:12:43.399Z,47.70
2019-01-28T08:15:14.822Z,47.40
2019-01-28T08:17:42.285Z,47.40
2019-01-28T08:20:11.610Z,47.40
2019-01-28T08:22:39.265Z,47.30
2019-01-28T08:25:08.629Z,47.20
2019-01-28T08:27:36.099Z,47.30
2019-01-28T08:30:05.203Z,47.30
2019-01-28T08:32:32.670Z,47.30
2019-01-28T08:35:00.281Z,47.30
2019-01-28T08:37:28.160Z,47.60
2019-01-28T08:39:55.804Z,47.60
2019-01-28T08:42:23.374Z,47.60
2019-01-28T08:44:50.841Z,47.60
2019-01-28T08:47:18.314Z,47.60
2019-01-28T08:49:45.782Z,47.60
2019-01-28T08:52:13.260Z,47.50
2019-01-28T08:54:40.721Z,47.40
2019-01-28T08:57:08.546Z,47.40
2019-01-28T08:59:36.031Z,47.30
2019-01-28T09:02:04.093Z,47.30
2019-01-28T09:04:31.720Z,47.10
2019-01-28T09:06:59.198Z,47.00
2019-01-28T09:09:26.737Z,46.90
2019-01-28T09:11:54.508Z,46.90
2019-01-28T09:14:21.973Z,46.80
2019-01-28T09:16:49.443Z,47.10
2019-01-28T09:19:16.915Z,46.80
2019-01-28T09:21:44.390Z,46.80
2019-01-28T09:24:11.856Z,46.70
2019-01-28T09:26:39.677Z,46.70
2019-01-28T09:29:07.146Z,46.70
2019-01-28T09:31:34.718Z,46.60
2019-01-28T09:34:02.186Z,46.50
2019-01-28T09:36:29.650Z,46.50
2019-01-28T09:38:57.210Z,46.50
2019-01-28T09:41:24.676Z,46.50
2019-01-28T09:43:52.142Z,46.50
2019-01-28T09:46:19.626Z,46.40
2019-01-28T09:48:47.109Z,46.40
2019-01-28T09:51:14.575Z,46.40
2019-01-28T09:53:42.050Z,46.50
2019-01-28T09:56:09.514Z,46.40
2019-01-28T09:58:36.986Z,46.40
2019-01-28T10:01:04.537Z,46.40
2019-01-28T10:03:32.021Z,46.40
2019-01-28T10:05:59.543Z,46.30
2019-01-28T10:08:27.028Z,46.30
2019-01-28T10:10:54.486Z,46.40
2019-01-28T10:13:21.969Z,46.50
2019-01-28T10:15:49.432Z,46.70
2019-01-28T10:18:16.888Z,47.00
2019-01-28T10:20:45.132Z,47.80
2019-01-28T10:23:12.670Z,48.40
2019-01-28T10:25:40.138Z,47.90
2019-01-28T10:28:07.593Z,48.00
2019-01-28T10:30:39.041Z,48.10
2019-01-28T10:33:06.631Z,48.20
2019-01-28T10:35:35.031Z,48.20
2019-01-28T10:38:02.507Z,48.30
2019-01-28T10:40:30.945Z,48.50
2019-01-28T10:42:58.405Z,48.70
2019-01-28T10:45:25.881Z,48.70
2019-01-28T10:47:53.349Z,48.80
2019-01-28T10:50:21.385Z,48.90
2019-01-28T10:52:48.853Z,49.30
2019-01-28T10:55:17.956Z,49.30
2019-01-28T10:57:45.424Z,49.50
2019-01-28T11:00:14.541Z,49.60
2019-01-28T11:02:42.007Z,49.70
2019-01-28T11:05:09.504Z,49.80
2019-01-28T11:07:37.048Z,49.80
2019-01-28T11:10:06.237Z,49.90
2019-01-28T11:12:33.888Z,49.90
2019-01-28T11:15:01.478Z,49.90
2019-01-28T11:17:29.089Z,49.90
2019-01-28T11:19:56.564Z,50.10
2019-01-28T11:22:24.033Z,50.40
2019-01-28T11:24:51.600Z,50.10
2019-01-28T11:27:19.237Z,50.20
2019-01-28T11:29:46.841Z,50.30
2019-01-28T11:32:14.366Z,50.50
2019-01-28T11:34:41.912Z,50.60
2019-01-28T11:37:09.495Z,50.90
2019-01-28T11:39:37.148Z,51.10
2019-01-28T11:42:04.797Z,50.90
2019-01-28T11:44:32.438Z,50.90
2019-01-28T11:47:00.088Z,50.90
2019-01-28T11:49:27.679Z,50.90
2019-01-28T11:51:55.208Z,51.10
2019-01-28T11:54:22.674Z,51.00
2019-01-28T11:56:50.172Z,51.10
2019-01-28T11:59:17.645Z,51.10
2019-01-28T12:01:45.108Z,51.10
2019-01-28T12:04:12.664Z,51.00
2019-01-28T12:06:40.136Z,51.10
2019-01-28T12:09:07.604Z,51.10
2019-01-28T12:11:35.082Z,51.20
2019-01-28T12:14:02.549Z,51.20
2019-01-28T12:16:30.022Z,51.30
2019-01-28T12:18:57.510Z,51.30
2019-01-28T12:21:24.979Z,51.20
2019-01-28T12:23:52.438Z,51.20
2019-01-28T12:26:20.006Z,51.30
2019-01-28T12:28:47.484Z,51.10
2019-01-28T12:31:14.946Z,51.20
2019-01-28T12:33:42.415Z,51.20
2019-01-28T12:36:09.887Z,51.20
2019-01-28T12:38:37.346Z,51.20
2019-01-28T12:41:04.818Z,51.10
2019-01-28T12:43:32.281Z,51.40
2019-01-28T12:46:00.048Z,51.50
2019-01-28T12:48:27.522Z,51.40
2019-01-28T12:50:54.969Z,51.40
2019-01-28T12:53:22.477Z,51.30
2019-01-28T12:55:49.994Z,51.30
2019-01-28T12:58:17.478Z,51.40
2019-01-28T13:00:46.593Z,51.20
2019-01-28T13:03:14.072Z,51.40
2019-01-28T13:05:41.561Z,51.20
2019-01-28T13:08:09.043Z,51.20
2019-01-28T13:10:36.510Z,51.20
2019-01-28T13:13:03.977Z,51.20
2019-01-28T13:15:32.302Z,51.20
2019-01-28T13:17:59.764Z,51.30
2019-01-28T13:20:27.415Z,51.50
2019-01-28T13:22:54.885Z,51.50
2019-01-28T13:25:27.044Z,51.40
2019-01-28T13:27:54.581Z,51.50
2019-01-28T13:30:23.689Z,51.20
2019-01-28T13:32:51.155Z,51.20
2019-01-28T13:35:18.689Z,51.30
2019-01-28T13:37:46.173Z,51.50
2019-01-28T13:40:14.313Z,51.40
2019-01-28T13:42:41.782Z,51.50
2019-01-28T13:45:10.626Z,51.50
2019-01-28T13:47:39.245Z,51.50
2019-01-28T13:50:08.546Z,51.50
2019-01-28T13:52:36.013Z,51.70
2019-01-28T13:55:04.250Z,51.70
2019-01-28T13:57:31.713Z,51.70
2019-01-28T13:59:59.182Z,51.60
2019-01-28T14:02:26.663Z,51.70
2019-01-28T14:04:54.122Z,51.60
2019-01-28T14:07:21.609Z,51.60
2019-01-28T14:09:49.082Z,51.70
2019-01-28T14:12:16.688Z,51.70
2019-01-28T14:14:44.144Z,51.70
2019-01-28T14:17:11.619Z,51.60
2019-01-28T14:19:46.071Z,51.70
2019-01-28T14:22:08.277Z,51.70
2019-01-28T14:24:35.750Z,51.70
2019-01-28T14:27:03.217Z,51.70
2019-01-28T14:29:30.698Z,51.80
2019-01-28T14:31:58.179Z,51.80
2019-01-28T14:34:25.637Z,51.80
2019-01-28T14:36:53.121Z,51.70
2019-01-28T14:39:20.651Z,51.60
2019-01-28T14:41:48.118Z,51.70
2019-01-28T14:44:15.658Z,51.60
2019-01-28T14:46:43.134Z,51.60
2019-01-28T14:49:10.660Z,51.60
2019-01-28T14:51:38.217Z,51.60
2019-01-28T14:54:05.677Z,51.70
2019-01-28T14:56:33.144Z,51.70
2019-01-28T14:59:01.479Z,51.70
2019-01-28T15:01:29.106Z,51.70
2019-01-28T15:03:56.594Z,51.70
2019-01-28T15:06:25.155Z,51.40
2019-01-28T15:08:52.856Z,51.30
2019-01-28T15:11:20.502Z,51.40
2019-01-28T15:13:48.111Z,51.30
2019-01-28T15:16:15.610Z,51.10
2019-01-28T15:18:43.102Z,51.40
2019-01-28T15:21:10.609Z,50.80
2019-01-28T15:23:38.161Z,51.40
2019-01-28T15:26:05.634Z,51.40
2019-01-28T15:28:33.178Z,51.30
2019-01-28T15:31:00.746Z,51.30
2019-01-28T15:33:28.346Z,51.30
2019-01-28T15:35:55.800Z,51.30
2019-01-28T15:38:23.274Z,51.40
2019-01-28T15:40:50.770Z,51.40
2019-01-28T15:43:18.266Z,52.00
2019-01-28T15:45:45.814Z,51.40
2019-01-28T15:48:13.320Z,51.30
2019-01-28T15:50:40.810Z,51.40
2019-01-28T15:53:08.300Z,51.60
2019-01-28T15:55:37.324Z,51.40
2019-01-28T15:58:05.414Z,51.40
2019-01-28T16:00:34.045Z,51.50
2019-01-28T16:03:02.386Z,51.50
2019-01-28T16:05:29.852Z,51.50
2019-01-28T16:07:57.331Z,51.50
2019-01-28T16:10:24.874Z,51.50
2019-01-28T16:12:52.611Z,51.70
2019-01-28T16:15:21.632Z,51.70
2019-01-28T16:17:49.483Z,51.70
2019-01-28T16:20:18.588Z,51.60
2019-01-28T16:22:46.881Z,51.70
2019-01-28T16:25:14.540Z,51.70
2019-01-28T16:27:42.509Z,51.60
2019-01-28T16:30:26.423Z,51.60
2019-01-28T16:32:53.274Z,51.60
2019-01-28T16:35:21.453Z,52.20
2019-01-28T16:37:49.814Z,51.60
2019-01-28T16:40:21.565Z,51.60
2019-01-28T16:42:49.346Z,51.70
2019-01-28T16:45:17.979Z,51.50
2019-01-28T16:47:45.708Z,51.50
2019-01-28T16:50:15.409Z,51.50
2019-01-28T16:52:43.174Z,51.40
2019-01-28T16:55:12.082Z,51.40
2019-01-28T16:57:39.632Z,51.40
2019-01-28T17:00:09.107Z,51.30
2019-01-28T17:02:36.906Z,51.20
2019-01-28T17:05:06.305Z,51.20
2019-01-28T17:07:34.066Z,51.20
2019-01-28T17:10:02.150Z,51.20
2019-01-28T17:12:30.010Z,51.20
2019-01-28T17:14:57.845Z,51.10
2019-01-28T17:17:25.642Z,51.20
2019-01-28T17:19:53.506Z,51.20
2019-01-28T17:22:21.486Z,51.20
2019-01-28T17:24:49.154Z,51.80
2019-01-28T17:27:17.256Z,51.10
2019-01-28T17:29:44.927Z,51.10
2019-01-28T17:32:13.005Z,51.10
2019-01-28T17:34:41.399Z,51.10
2019-01-28T17:37:09.181Z,51.10
2019-01-28T17:39:36.855Z,51.10
2019-01-28T17:42:05.058Z,51.00
2019-01-28T17:44:33.175Z,51.00
2019-01-28T17:47:01.229Z,51.00
2019-01-28T17:49:29.403Z,51.00
2019-01-28T17:51:57.480Z,51.10
2019-01-28T17:54:25.635Z,51.10
2019-01-28T17:56:54.061Z,51.00
2019-01-28T17:59:22.258Z,51.00
2019-01-28T18:01:50.229Z,50.90
2019-01-28T18:04:18.141Z,50.80
2019-01-28T18:06:45.973Z,50.80
2019-01-28T18:09:14.093Z,50.80
2019-01-28T18:11:42.193Z,50.70
2019-01-28T18:14:10.506Z,50.70
2019-01-28T18:16:38.630Z,50.70
2019-01-28T18:19:06.802Z,50.60
2019-01-28T18:21:34.889Z,50.70
2019-01-28T18:24:03.029Z,50.70
2019-01-28T18:26:31.949Z,51.40
2019-01-28T18:29:00.142Z,50.80
2019-01-28T18:31:28.325Z,50.90
2019-01-28T18:33:57.071Z,50.90
2019-01-28T18:36:24.938Z,50.90
2019-01-28T18:38:52.927Z,50.90
2019-01-28T18:41:21.070Z,50.90
2019-01-28T18:43:49.375Z,50.90
2019-01-28T18:46:17.722Z,50.90
2019-01-28T18:48:45.699Z,50.80
2019-01-28T18:51:13.786Z,50.90
2019-01-28T18:53:41.954Z,50.80
2019-01-28T18:56:10.133Z,50.80
2019-01-28T18:58:38.402Z,50.50
2019-01-28T19:01:06.974Z,50.40
2019-01-28T19:03:35.232Z,50.50
2019-01-28T19:06:07.461Z,50.60
2019-01-28T19:08:36.766Z,50.60
2019-01-28T19:11:09.105Z,50.50
2019-01-28T19:13:38.434Z,50.40
2019-01-28T19:16:26.261Z,50.40
2019-01-28T19:18:55.662Z,50.40
2019-01-28T19:21:27.826Z,50.40
2019-01-28T19:23:55.970Z,50.40
2019-01-28T19:26:24.398Z,50.40
2019-01-28T19:28:52.615Z,50.40
2019-01-28T19:31:20.938Z,50.30
2019-01-28T19:33:49.950Z,50.30
2019-01-28T19:36:18.502Z,50.90
2019-01-28T19:38:47.049Z,50.40
2019-01-28T19:41:15.259Z,50.30
2019-01-28T19:43:43.442Z,50.30
2019-01-28T19:46:11.767Z,50.30
2019-01-28T19:48:40.242Z,50.30
2019-01-28T19:51:15.609Z,50.30
2019-01-28T19:53:38.804Z,50.30
2019-01-28T19:56:07.014Z,50.20
2019-01-28T19:58:38.312Z,50.20
2019-01-28T20:01:07.461Z,50.20
2019-01-28T20:03:35.782Z,50.10
2019-01-28T20:06:03.950Z,50.20
2019-01-28T20:08:32.127Z,50.10
2019-01-28T20:11:01.473Z,50.10
2019-01-28T20:13:29.560Z,50.10
2019-01-28T20:15:57.941Z,50.20
2019-01-28T20:18:26.213Z,50.10
2019-01-28T20:20:54.472Z,50.20
2019-01-28T20:23:22.780Z,50.10
2019-01-28T20:25:51.173Z,50.10
2019-01-28T20:28:19.716Z,50.00
2019-01-28T20:30:48.045Z,49.90
2019-01-28T20:33:16.398Z,49.90
2019-01-28T20:35:44.663Z,49.90
2019-01-28T20:38:15.890Z,49.90
2019-01-28T20:40:43.053Z,49.90
2019-01-28T20:43:11.312Z,49.90
2019-01-28T20:45:44.915Z,49.80
2019-01-28T20:48:09.643Z,49.80
2019-01-28T20:50:38.151Z,49.90
2019-01-28T20:53:06.304Z,49.90
2019-01-28T20:55:34.570Z,49.90
2019-01-28T20:58:02.819Z,50.30
2019-01-28T21:00:30.850Z,49.90
2019-01-28T21:02:59.270Z,49.90
2019-01-28T21:05:27.537Z,49.90
2019-01-28T21:07:55.718Z,49.90
2019-01-28T21:10:23.786Z,49.90
2019-01-28T21:12:52.522Z,49.90
2019-01-28T21:15:20.906Z,49.90
2019-01-28T21:17:49.101Z,49.90
2019-01-28T21:20:18.739Z,49.90
2019-01-28T21:22:47.013Z,49.90
2019-01-28T21:25:16.294Z,49.90
2019-01-28T21:27:44.378Z,49.90
2019-01-28T21:30:14.045Z,50.20
2019-01-28T21:32:42.076Z,49.90
2019-01-28T21:35:10.754Z,49.80
2019-01-28T21:37:39.989Z,49.70
2019-01-28T21:40:11.798Z,49.60
2019-01-28T21:42:39.777Z,49.60
2019-01-28T21:45:09.471Z,49.60
2019-01-28T21:47:37.121Z,49.50
2019-01-28T21:50:06.735Z,49.60
2019-01-28T21:52:34.381Z,50.00
2019-01-28T21:55:01.904Z,49.60
2019-01-28T21:57:29.533Z,49.50
2019-01-28T21:59:57.088Z,49.50
2019-01-28T22:02:24.633Z,49.40
2019-01-28T22:04:52.165Z,49.50
2019-01-28T22:07:19.724Z,49.50
2019-01-28T22:09:47.266Z,49.40
2019-01-28T22:12:14.741Z,49.30
2019-01-28T22:14:42.210Z,49.30
2019-01-28T22:17:09.682Z,49.30
2019-01-28T22:19:37.153Z,49.30
2019-01-28T22:22:04.618Z,49.30
2019-01-28T22:24:32.365Z,49.20
2019-01-28T22:26:59.833Z,49.20
2019-01-28T22:29:27.697Z,49.30
2019-01-28T22:31:55.181Z,49.20
2019-01-28T22:34:22.651Z,49.80
2019-01-28T22:36:50.113Z,49.20
2019-01-28T22:39:17.616Z,49.10
2019-01-28T22:41:45.384Z,49.10
2019-01-28T22:44:12.854Z,49.20
2019-01-28T22:46:40.332Z,49.00
2019-01-28T22:49:07.793Z,49.00
2019-01-28T22:51:35.265Z,49.00
2019-01-28T22:54:02.733Z,49.00
2019-01-28T22:56:30.201Z,48.90
2019-01-28T22:58:57.673Z,48.90
2019-01-28T23:01:25.153Z,48.90
2019-01-28T23:03:52.621Z,48.90
2019-01-28T23:06:20.094Z,48.90
2019-01-28T23:08:47.573Z,48.90
2019-01-28T23:11:15.046Z,48.90
2019-01-28T23:13:42.522Z,48.90
2019-01-28T23:16:09.986Z,49.60
2019-01-28T23:18:37.778Z,48.90
2019-01-28T23:21:05.240Z,48.90
2019-01-28T23:23:32.706Z,48.90
2019-01-28T23:26:00.175Z,48.80
2019-01-28T23:28:27.637Z,48.80
2019-01-28T23:30:55.110Z,48.80
2019-01-28T23:33:22.585Z,48.80
2019-01-28T23:35:50.054Z,48.80
2019-01-28T23:38:17.517Z,48.70
2019-01-28T23:40:45.001Z,48.70
2019-01-28T23:43:12.497Z,48.70
2019-01-28T23:45:39.970Z,48.60
2019-01-28T23:48:07.482Z,48.60
2019-01-28T23:50:34.993Z,48.70
2019-01-28T23:53:02.461Z,48.70
2019-01-28T23:55:29.938Z,48.60
2019-01-28T23:57:57.392Z,48.60
